createdAt,value
2018-12-06T00:00:06.141Z,0
2018-12-06T00:00:38.130Z,0
2018-12-06T00:01:10.092Z,0
2018-12-06T00:01:42.066Z,0
2018-12-06T00:02:14.041Z,0
2018-12-06T00:02:46.043Z,0
2018-12-06T00:03:18.021Z,0
2018-12-06T00:03:50.025Z,0
2018-12-06T00:04:22.007Z,0
2018-12-06T00:04:53.992Z,0
2018-12-06T00:05:25.971Z,0
2018-12-06T00:05:57.947Z,0
2018-12-06T00:06:30.100Z,0
2018-12-06T00:07:02.095Z,0
2018-12-06T00:07:34.083Z,0
2018-12-06T00:08:06.052Z,0
2018-12-06T00:08:38.024Z,0
2018-12-06T00:09:10.004Z,0
2018-12-06T00:09:41.991Z,0
2018-12-06T00:10:13.974Z,0
2018-12-06T00:10:46.033Z,0
2018-12-06T00:11:18.015Z,0
2018-12-06T00:11:49.986Z,0
2018-12-06T00:12:21.982Z,0
2018-12-06T00:12:53.957Z,0
2018-12-06T00:13:25.942Z,0
2018-12-06T00:13:57.924Z,0
2018-12-06T00:14:29.889Z,0
2018-12-06T00:15:01.872Z,0
2018-12-06T00:15:33.855Z,0
2018-12-06T00:16:05.828Z,0
2018-12-06T00:16:37.807Z,0
2018-12-06T00:17:09.773Z,0
2018-12-06T00:17:41.752Z,0
2018-12-06T00:18:13.745Z,0
2018-12-06T00:18:45.743Z,0
2018-12-06T00:19:17.728Z,0
2018-12-06T00:19:49.711Z,0
2018-12-06T00:20:21.672Z,0
2018-12-06T00:20:53.651Z,0
2018-12-06T00:21:25.648Z,0
2018-12-06T00:21:57.622Z,0
2018-12-06T00:22:29.586Z,0
2018-12-06T00:23:01.561Z,0
2018-12-06T00:23:33.551Z,0
2018-12-06T00:24:05.629Z,0
2018-12-06T00:24:37.620Z,0
2018-12-06T00:25:09.597Z,0
2018-12-06T00:25:41.563Z,0
2018-12-06T00:26:13.526Z,0
2018-12-06T00:26:45.499Z,0
2018-12-06T00:27:17.474Z,0
2018-12-06T00:27:49.445Z,0
2018-12-06T00:28:21.423Z,0
2018-12-06T00:28:53.389Z,0
2018-12-06T00:29:25.366Z,0
2018-12-06T00:29:57.355Z,0
2018-12-06T00:30:29.329Z,0
2018-12-06T00:31:01.307Z,0
2018-12-06T00:31:33.364Z,0
2018-12-06T00:32:05.334Z,0
2018-12-06T00:32:37.310Z,0
2018-12-06T00:33:09.275Z,0
2018-12-06T00:33:41.259Z,0
2018-12-06T00:34:13.223Z,0
2018-12-06T00:34:45.193Z,0
2018-12-06T00:35:17.164Z,0
2018-12-06T00:35:49.137Z,0
2018-12-06T00:36:21.131Z,0
2018-12-06T00:36:53.113Z,0
2018-12-06T00:37:25.092Z,0
2018-12-06T00:37:57.161Z,0
2018-12-06T00:38:29.139Z,0
2018-12-06T00:39:01.134Z,0
2018-12-06T00:39:33.126Z,0
2018-12-06T00:40:05.091Z,0
2018-12-06T00:40:37.069Z,0
2018-12-06T00:41:09.072Z,0
2018-12-06T00:41:41.047Z,0
2018-12-06T00:42:13.024Z,0
2018-12-06T00:42:45.008Z,0
2018-12-06T00:43:16.996Z,0
2018-12-06T00:43:48.982Z,0
2018-12-06T00:44:21.025Z,0
2018-12-06T00:44:52.989Z,0
2018-12-06T00:45:24.958Z,0
2018-12-06T00:45:56.951Z,0
2018-12-06T00:46:28.950Z,0
2018-12-06T00:47:00.924Z,0
2018-12-06T00:47:32.907Z,0
2018-12-06T00:48:04.885Z,0
2018-12-06T00:48:36.884Z,0
2018-12-06T00:49:08.874Z,0
2018-12-06T00:49:40.843Z,0
2018-12-06T00:50:12.823Z,0
2018-12-06T00:50:44.810Z,0
2018-12-06T00:51:16.807Z,0
2018-12-06T00:51:48.794Z,0
2018-12-06T00:52:20.778Z,0
2018-12-06T00:52:52.766Z,0
2018-12-06T00:53:24.723Z,0
2018-12-06T00:53:56.702Z,0
2018-12-06T00:54:28.680Z,0
2018-12-06T00:55:00.651Z,0
2018-12-06T00:55:32.630Z,0
2018-12-06T00:56:04.607Z,0
2018-12-06T00:56:36.585Z,0
2018-12-06T00:57:08.582Z,0
2018-12-06T00:57:40.567Z,0
2018-12-06T00:58:12.565Z,0
2018-12-06T00:58:44.546Z,0
2018-12-06T00:59:16.552Z,0
2018-12-06T00:59:48.531Z,0
2018-12-06T01:00:20.507Z,0
2018-12-06T01:00:52.486Z,0
2018-12-06T01:01:24.476Z,0
2018-12-06T01:01:56.463Z,0
2018-12-06T01:02:28.441Z,0
2018-12-06T01:03:00.418Z,0
2018-12-06T01:03:32.400Z,0
2018-12-06T01:04:04.382Z,0
2018-12-06T01:04:36.387Z,0
2018-12-06T01:05:08.371Z,0
2018-12-06T01:05:40.333Z,0
2018-12-06T01:06:12.353Z,0
2018-12-06T01:06:44.339Z,0
2018-12-06T01:07:16.310Z,0
2018-12-06T01:07:48.300Z,0
2018-12-06T01:08:20.278Z,0
2018-12-06T01:08:52.270Z,0
2018-12-06T01:09:24.350Z,0
2018-12-06T01:09:56.338Z,0
2018-12-06T01:10:28.323Z,0
2018-12-06T01:11:00.319Z,0
2018-12-06T01:11:32.304Z,0
2018-12-06T01:12:04.289Z,0
2018-12-06T01:12:36.281Z,0
2018-12-06T01:13:08.263Z,0
2018-12-06T01:13:40.246Z,0
2018-12-06T01:14:12.300Z,0
2018-12-06T01:14:44.264Z,0
2018-12-06T01:15:16.223Z,0
2018-12-06T01:15:48.190Z,0
2018-12-06T01:16:20.176Z,0
2018-12-06T01:16:52.235Z,0
2018-12-06T01:17:24.239Z,0
2018-12-06T01:17:56.231Z,0
2018-12-06T01:18:28.211Z,0
2018-12-06T01:19:00.250Z,0
2018-12-06T01:19:32.226Z,0
2018-12-06T01:20:04.288Z,0
2018-12-06T01:20:36.282Z,0
2018-12-06T01:21:08.248Z,0
2018-12-06T01:21:40.225Z,0
2018-12-06T01:22:12.234Z,0
2018-12-06T01:22:44.217Z,0
2018-12-06T01:23:16.196Z,0
2018-12-06T01:23:48.169Z,0
2018-12-06T01:24:20.155Z,0
2018-12-06T01:24:52.325Z,0
2018-12-06T01:25:24.306Z,0
2018-12-06T01:25:56.297Z,0
2018-12-06T01:26:28.271Z,0
2018-12-06T01:27:00.321Z,0
2018-12-06T01:27:32.295Z,0
2018-12-06T01:28:04.254Z,0
2018-12-06T01:28:36.229Z,0
2018-12-06T01:29:08.189Z,0
2018-12-06T01:29:40.156Z,0
2018-12-06T01:30:12.128Z,0
2018-12-06T01:30:44.103Z,0
2018-12-06T01:31:16.097Z,0
2018-12-06T01:31:48.066Z,0
2018-12-06T01:32:20.143Z,0
2018-12-06T01:32:52.233Z,0
2018-12-06T01:33:24.236Z,0
2018-12-06T01:33:56.210Z,0
2018-12-06T01:34:28.198Z,0
2018-12-06T01:35:00.191Z,0
2018-12-06T01:35:32.198Z,0
2018-12-06T01:36:04.176Z,0
2018-12-06T01:36:36.145Z,0
2018-12-06T01:37:08.142Z,0
2018-12-06T01:37:40.117Z,0
2018-12-06T01:38:12.095Z,0
2018-12-06T01:38:44.077Z,0
2018-12-06T01:39:16.051Z,0
2018-12-06T01:39:48.034Z,0
2018-12-06T01:40:20.101Z,0
2018-12-06T01:40:52.087Z,0
2018-12-06T01:41:24.073Z,0
2018-12-06T01:41:56.070Z,0
2018-12-06T01:42:28.040Z,0
2018-12-06T01:43:00.016Z,0
2018-12-06T01:43:31.998Z,0
2018-12-06T01:44:03.975Z,0
2018-12-06T01:44:35.965Z,0
2018-12-06T01:45:07.937Z,0
2018-12-06T01:45:39.906Z,0
2018-12-06T01:46:11.902Z,0
2018-12-06T01:46:43.878Z,0
2018-12-06T01:47:15.890Z,0
2018-12-06T01:47:47.875Z,0
2018-12-06T01:48:19.841Z,0
2018-12-06T01:48:51.822Z,0
2018-12-06T01:49:23.806Z,0
2018-12-06T01:49:55.778Z,0
2018-12-06T01:50:27.778Z,0
2018-12-06T01:50:59.758Z,0
2018-12-06T01:51:31.741Z,0
2018-12-06T01:52:03.714Z,0
2018-12-06T01:52:35.698Z,0
2018-12-06T01:53:07.655Z,0
2018-12-06T01:53:39.615Z,0
2018-12-06T01:54:11.602Z,0
2018-12-06T01:54:43.574Z,0
2018-12-06T01:55:15.560Z,0
2018-12-06T01:55:47.516Z,0
2018-12-06T01:56:19.494Z,0
2018-12-06T01:56:51.472Z,0
2018-12-06T01:57:23.437Z,0
2018-12-06T01:57:55.411Z,0
2018-12-06T01:58:27.378Z,0
2018-12-06T01:58:59.411Z,0
2018-12-06T01:59:31.392Z,0
2018-12-06T02:00:03.350Z,0
2018-12-06T02:00:35.322Z,0
2018-12-06T02:01:07.309Z,0
2018-12-06T02:01:39.292Z,0
2018-12-06T02:02:11.282Z,0
2018-12-06T02:02:43.268Z,0
2018-12-06T02:03:15.238Z,0
2018-12-06T02:03:47.227Z,0
2018-12-06T02:04:19.200Z,0
2018-12-06T02:04:51.178Z,0
2018-12-06T02:05:23.165Z,0
2018-12-06T02:05:55.151Z,0
2018-12-06T02:06:27.127Z,0
2018-12-06T02:06:59.101Z,0
2018-12-06T02:07:31.077Z,0
2018-12-06T02:08:03.062Z,0
2018-12-06T02:08:35.042Z,0
2018-12-06T02:09:07.012Z,0
2018-12-06T02:09:39.047Z,0
2018-12-06T02:10:11.035Z,0
2018-12-06T02:10:43.007Z,0
2018-12-06T02:11:14.972Z,0
2018-12-06T02:11:46.950Z,0
2018-12-06T02:12:18.931Z,0
2018-12-06T02:12:50.928Z,0
2018-12-06T02:13:22.919Z,0
2018-12-06T02:13:54.924Z,0
2018-12-06T02:14:26.929Z,0
2018-12-06T02:14:58.915Z,0
2018-12-06T02:15:30.892Z,0
2018-12-06T02:16:02.874Z,0
2018-12-06T02:16:34.840Z,0
2018-12-06T02:17:06.841Z,0
2018-12-06T02:17:38.810Z,0
2018-12-06T02:18:10.823Z,0
2018-12-06T02:18:42.815Z,0
2018-12-06T02:19:14.785Z,0
2018-12-06T02:19:46.758Z,0
2018-12-06T02:20:18.733Z,0
2018-12-06T02:20:50.729Z,0
2018-12-06T02:21:22.703Z,0
2018-12-06T02:21:54.669Z,0
2018-12-06T02:22:26.646Z,0
2018-12-06T02:22:58.621Z,0
2018-12-06T02:23:30.607Z,0
2018-12-06T02:24:02.572Z,0
2018-12-06T02:24:34.572Z,0
2018-12-06T02:25:06.545Z,0
2018-12-06T02:25:38.516Z,0
2018-12-06T02:26:10.498Z,0
2018-12-06T02:26:42.471Z,0
2018-12-06T02:27:14.465Z,0
2018-12-06T02:27:46.517Z,0
2018-12-06T02:28:18.486Z,0
2018-12-06T02:28:50.461Z,0
2018-12-06T02:29:22.445Z,0
2018-12-06T02:29:54.418Z,0
2018-12-06T02:30:26.402Z,0
2018-12-06T02:30:58.391Z,0
2018-12-06T02:31:30.503Z,0
2018-12-06T02:32:02.498Z,0
2018-12-06T02:32:34.473Z,0
2018-12-06T02:33:06.478Z,0
2018-12-06T02:33:38.481Z,0
2018-12-06T02:34:10.472Z,0
2018-12-06T02:34:42.473Z,0
2018-12-06T02:35:14.467Z,0
2018-12-06T02:35:46.483Z,0
2018-12-06T02:36:18.458Z,0
2018-12-06T02:36:50.449Z,0
2018-12-06T02:37:22.449Z,0
2018-12-06T02:37:54.451Z,0
2018-12-06T02:38:26.544Z,0
2018-12-06T02:38:58.530Z,0
2018-12-06T02:39:30.506Z,0
2018-12-06T02:40:02.493Z,0
2018-12-06T02:40:34.472Z,0
2018-12-06T02:41:06.460Z,0
2018-12-06T02:41:38.450Z,0
2018-12-06T02:42:10.430Z,0
2018-12-06T02:42:42.415Z,0
2018-12-06T02:43:14.397Z,0
2018-12-06T02:43:46.371Z,0
2018-12-06T02:44:18.362Z,0
2018-12-06T02:44:50.361Z,0
2018-12-06T02:45:22.349Z,0
2018-12-06T02:45:54.325Z,0
2018-12-06T02:46:26.316Z,0
2018-12-06T02:46:58.297Z,0
2018-12-06T02:47:30.283Z,0
2018-12-06T02:48:02.289Z,0
2018-12-06T02:48:34.264Z,0
2018-12-06T02:49:06.279Z,0
2018-12-06T02:49:38.247Z,0
2018-12-06T02:50:10.232Z,0
2018-12-06T02:50:42.202Z,0
2018-12-06T02:51:14.212Z,0
2018-12-06T02:51:46.209Z,0
2018-12-06T02:52:18.206Z,0
2018-12-06T02:52:50.181Z,0
2018-12-06T02:53:22.197Z,0
2018-12-06T02:53:54.189Z,0
2018-12-06T02:54:26.191Z,0
2018-12-06T02:54:58.169Z,0
2018-12-06T02:55:30.154Z,0
2018-12-06T02:56:02.143Z,0
2018-12-06T02:56:34.122Z,0
2018-12-06T02:57:06.116Z,0
2018-12-06T02:57:38.119Z,0
2018-12-06T02:58:10.103Z,0
2018-12-06T02:58:42.242Z,0
2018-12-06T02:59:14.302Z,0
2018-12-06T02:59:46.291Z,0
2018-12-06T03:00:18.308Z,0
2018-12-06T03:00:50.293Z,0
2018-12-06T03:01:22.278Z,0
2018-12-06T03:01:54.259Z,0
2018-12-06T03:02:26.243Z,0
2018-12-06T03:02:58.246Z,0
2018-12-06T03:03:30.312Z,0
2018-12-06T03:04:02.293Z,0
2018-12-06T03:04:34.288Z,0
2018-12-06T03:05:06.277Z,0
2018-12-06T03:05:38.338Z,0
2018-12-06T03:06:10.311Z,0
2018-12-06T03:06:42.307Z,0
2018-12-06T03:07:14.289Z,0
2018-12-06T03:07:46.272Z,0
2018-12-06T03:08:18.279Z,0
2018-12-06T03:08:50.249Z,0
2018-12-06T03:09:22.225Z,0
2018-12-06T03:09:54.206Z,0
2018-12-06T03:10:26.206Z,0
2018-12-06T03:10:58.208Z,0
2018-12-06T03:11:30.195Z,0
2018-12-06T03:12:02.206Z,0
2018-12-06T03:12:34.189Z,0
2018-12-06T03:13:06.165Z,0
2018-12-06T03:13:38.144Z,0
2018-12-06T03:14:10.201Z,0
2018-12-06T03:14:42.201Z,0
2018-12-06T03:15:14.185Z,0
2018-12-06T03:15:46.161Z,0
2018-12-06T03:16:18.133Z,0
2018-12-06T03:16:50.114Z,0
2018-12-06T03:17:22.105Z,0
2018-12-06T03:17:54.163Z,0
2018-12-06T03:18:26.145Z,0
2018-12-06T03:18:58.134Z,0
2018-12-06T03:19:30.107Z,0
2018-12-06T03:20:02.099Z,0
2018-12-06T03:20:34.086Z,0
2018-12-06T03:21:06.065Z,0
2018-12-06T03:21:38.061Z,0
2018-12-06T03:22:10.037Z,0
2018-12-06T03:22:42.024Z,0
2018-12-06T03:23:14.038Z,0
2018-12-06T03:23:46.021Z,0
2018-12-06T03:24:18.008Z,0
2018-12-06T03:24:49.989Z,0
2018-12-06T03:25:21.990Z,0
2018-12-06T03:25:53.984Z,0
2018-12-06T03:26:25.969Z,0
2018-12-06T03:26:57.970Z,0
2018-12-06T03:27:29.954Z,0
2018-12-06T03:28:01.950Z,0
2018-12-06T03:28:33.952Z,0
2018-12-06T03:29:05.930Z,0
2018-12-06T03:29:37.913Z,0
2018-12-06T03:30:09.926Z,0
2018-12-06T03:30:41.960Z,0
2018-12-06T03:31:14.000Z,0
2018-12-06T03:31:46.016Z,0
2018-12-06T03:32:18.072Z,0
2018-12-06T03:32:50.059Z,0
2018-12-06T03:33:22.141Z,0
2018-12-06T03:33:54.127Z,0
2018-12-06T03:34:26.119Z,0
2018-12-06T03:34:58.108Z,0
2018-12-06T03:35:30.115Z,0
2018-12-06T03:36:02.109Z,0
2018-12-06T03:36:34.082Z,0
2018-12-06T03:37:06.156Z,0
2018-12-06T03:37:38.147Z,0
2018-12-06T03:38:10.126Z,0
2018-12-06T03:38:42.099Z,0
2018-12-06T03:39:14.077Z,0
2018-12-06T03:39:46.053Z,0
2018-12-06T03:40:18.046Z,0
2018-12-06T03:40:50.035Z,0
2018-12-06T03:41:22.032Z,0
2018-12-06T03:41:54.016Z,0
2018-12-06T03:42:25.985Z,0
2018-12-06T03:42:57.986Z,0
2018-12-06T03:43:29.984Z,0
2018-12-06T03:44:01.983Z,0
2018-12-06T03:44:33.964Z,0
2018-12-06T03:45:05.963Z,0
2018-12-06T03:45:37.976Z,0
2018-12-06T03:46:09.965Z,0
2018-12-06T03:46:41.966Z,0
2018-12-06T03:47:13.956Z,0
2018-12-06T03:47:45.963Z,0
2018-12-06T03:48:17.954Z,0
2018-12-06T03:48:49.951Z,0
2018-12-06T03:49:21.952Z,0
2018-12-06T03:49:53.945Z,0
2018-12-06T03:50:25.921Z,0
2018-12-06T03:50:57.913Z,0
2018-12-06T03:51:29.898Z,0
2018-12-06T03:52:01.937Z,0
2018-12-06T03:52:34.054Z,0
2018-12-06T03:53:06.042Z,0
2018-12-06T03:53:38.004Z,0
2018-12-06T03:54:10.071Z,0
2018-12-06T03:54:42.050Z,0
2018-12-06T03:55:14.082Z,0
2018-12-06T03:55:46.083Z,0
2018-12-06T03:56:18.076Z,0
2018-12-06T03:56:50.074Z,0
2018-12-06T03:57:22.061Z,0
2018-12-06T03:57:54.067Z,0
2018-12-06T03:58:26.040Z,0
2018-12-06T03:58:58.023Z,0
2018-12-06T03:59:30.039Z,0
2018-12-06T04:00:02.033Z,0
2018-12-06T04:00:34.037Z,0
2018-12-06T04:01:06.050Z,0
2018-12-06T04:01:38.035Z,0
2018-12-06T04:02:10.044Z,0
2018-12-06T04:02:42.024Z,0
2018-12-06T04:03:14.030Z,0
2018-12-06T04:03:46.025Z,0
2018-12-06T04:04:17.998Z,0
2018-12-06T04:04:49.974Z,0
2018-12-06T04:05:22.059Z,0
2018-12-06T04:05:54.036Z,0
2018-12-06T04:06:26.010Z,0
2018-12-06T04:06:57.996Z,0
2018-12-06T04:07:29.974Z,0
2018-12-06T04:08:01.959Z,0
2018-12-06T04:08:33.939Z,0
2018-12-06T04:09:05.945Z,0
2018-12-06T04:09:37.931Z,0
2018-12-06T04:10:09.927Z,0
2018-12-06T04:10:41.913Z,0
2018-12-06T04:11:13.910Z,0
2018-12-06T04:11:45.888Z,0
2018-12-06T04:12:17.874Z,0
2018-12-06T04:12:49.858Z,0
2018-12-06T04:13:21.846Z,0
2018-12-06T04:13:53.991Z,0
2018-12-06T04:14:25.984Z,0
2018-12-06T04:14:57.963Z,0
2018-12-06T04:15:29.959Z,0
2018-12-06T04:16:01.952Z,0
2018-12-06T04:16:33.945Z,0
2018-12-06T04:17:05.916Z,0
2018-12-06T04:17:37.914Z,0
2018-12-06T04:18:09.895Z,0
2018-12-06T04:18:41.890Z,0
2018-12-06T04:19:13.890Z,0
2018-12-06T04:19:45.867Z,0
2018-12-06T04:20:17.844Z,0
2018-12-06T04:20:49.836Z,0
2018-12-06T04:21:21.884Z,0
2018-12-06T04:21:53.852Z,0
2018-12-06T04:22:25.846Z,0
2018-12-06T04:22:57.843Z,0
2018-12-06T04:23:29.825Z,0
2018-12-06T04:24:01.819Z,0
2018-12-06T04:24:33.804Z,0
2018-12-06T04:25:05.764Z,0
2018-12-06T04:25:37.744Z,0
2018-12-06T04:26:09.732Z,0
2018-12-06T04:26:41.719Z,0
2018-12-06T04:27:13.736Z,0
2018-12-06T04:27:45.717Z,0
2018-12-06T04:28:17.705Z,0
2018-12-06T04:28:49.698Z,0
2018-12-06T04:29:21.675Z,0
2018-12-06T04:29:53.660Z,0
2018-12-06T04:30:25.637Z,0
2018-12-06T04:30:57.607Z,0
2018-12-06T04:31:29.575Z,0
2018-12-06T04:32:01.552Z,0
2018-12-06T04:32:33.560Z,0
2018-12-06T04:33:05.529Z,0
2018-12-06T04:33:37.509Z,0
2018-12-06T04:34:09.499Z,0
2018-12-06T04:34:41.476Z,0
2018-12-06T04:35:13.454Z,0
2018-12-06T04:35:45.431Z,0
2018-12-06T04:36:17.420Z,0
2018-12-06T04:36:49.405Z,0
2018-12-06T04:37:21.408Z,0
2018-12-06T04:37:53.477Z,0
2018-12-06T04:38:25.481Z,0
2018-12-06T04:38:57.475Z,0
2018-12-06T04:39:29.481Z,0
2018-12-06T04:40:01.463Z,0
2018-12-06T04:40:33.442Z,0
2018-12-06T04:41:05.436Z,0
2018-12-06T04:41:37.411Z,0
2018-12-06T04:42:09.399Z,0
2018-12-06T04:42:41.478Z,0
2018-12-06T04:43:13.477Z,0
2018-12-06T04:43:45.462Z,0
2018-12-06T04:44:17.453Z,0
2018-12-06T04:44:49.438Z,0
2018-12-06T04:45:21.425Z,0
2018-12-06T04:45:53.406Z,0
2018-12-06T04:46:25.380Z,0
2018-12-06T04:46:57.374Z,0
2018-12-06T04:47:29.364Z,0
2018-12-06T04:48:01.427Z,0
2018-12-06T04:48:33.402Z,0
2018-12-06T04:49:05.386Z,0
2018-12-06T04:49:37.367Z,0
2018-12-06T04:50:09.380Z,0
2018-12-06T04:50:41.376Z,0
2018-12-06T04:51:13.352Z,0
2018-12-06T04:51:45.340Z,0
2018-12-06T04:52:17.323Z,0
2018-12-06T04:52:49.304Z,0
2018-12-06T04:53:21.310Z,0
2018-12-06T04:53:53.292Z,0
2018-12-06T04:54:25.282Z,0
2018-12-06T04:54:57.266Z,0
2018-12-06T04:55:29.253Z,0
2018-12-06T04:56:01.303Z,0
2018-12-06T04:56:33.290Z,0
2018-12-06T04:57:05.271Z,0
2018-12-06T04:57:37.249Z,0
2018-12-06T04:58:09.225Z,0
2018-12-06T04:58:41.207Z,0
2018-12-06T04:59:13.195Z,0
2018-12-06T04:59:45.175Z,0
2018-12-06T05:00:17.166Z,0
2018-12-06T05:00:49.155Z,0
2018-12-06T05:01:21.157Z,0
2018-12-06T05:01:53.152Z,0
2018-12-06T05:02:25.135Z,0
2018-12-06T05:02:57.110Z,0
2018-12-06T05:03:29.084Z,0
2018-12-06T05:04:01.062Z,0
2018-12-06T05:04:33.044Z,0
2018-12-06T05:05:05.031Z,0
2018-12-06T05:05:36.992Z,0
2018-12-06T05:06:08.975Z,0
2018-12-06T05:06:40.958Z,0
2018-12-06T05:07:12.939Z,0
2018-12-06T05:07:44.921Z,0
2018-12-06T05:08:16.908Z,0
2018-12-06T05:08:48.917Z,0
2018-12-06T05:09:20.892Z,0
2018-12-06T05:09:52.885Z,0
2018-12-06T05:10:24.874Z,0
2018-12-06T05:10:56.845Z,0
2018-12-06T05:11:28.825Z,0
2018-12-06T05:12:00.800Z,0
2018-12-06T05:12:32.791Z,0
2018-12-06T05:13:04.765Z,0
2018-12-06T05:13:36.748Z,0
2018-12-06T05:14:08.713Z,0
2018-12-06T05:14:40.701Z,0
2018-12-06T05:15:12.681Z,0
2018-12-06T05:15:44.657Z,0
2018-12-06T05:16:16.622Z,0
2018-12-06T05:16:48.610Z,0
2018-12-06T05:17:20.594Z,0
2018-12-06T05:17:52.560Z,0
2018-12-06T05:18:24.615Z,0
2018-12-06T05:18:56.580Z,0
2018-12-06T05:19:28.569Z,0
2018-12-06T05:20:00.557Z,0
2018-12-06T05:20:32.538Z,0
2018-12-06T05:21:04.512Z,0
2018-12-06T05:21:36.509Z,0
2018-12-06T05:22:08.499Z,0
2018-12-06T05:22:40.455Z,0
2018-12-06T05:23:12.441Z,0
2018-12-06T05:23:44.445Z,0
2018-12-06T05:24:16.424Z,0
2018-12-06T05:24:48.424Z,0
2018-12-06T05:25:20.425Z,0
2018-12-06T05:25:52.393Z,0
2018-12-06T05:26:24.386Z,0
2018-12-06T05:26:56.356Z,0
2018-12-06T05:27:28.339Z,0
2018-12-06T05:28:00.324Z,0
2018-12-06T05:28:32.298Z,0
2018-12-06T05:29:04.261Z,0
2018-12-06T05:29:36.233Z,0
2018-12-06T05:30:09.785Z,0
2018-12-06T05:30:41.763Z,0
2018-12-06T05:31:13.749Z,0
2018-12-06T05:31:45.723Z,0
2018-12-06T05:32:17.710Z,0
2018-12-06T05:32:49.702Z,0
2018-12-06T05:33:21.676Z,0
2018-12-06T05:33:53.651Z,0
2018-12-06T05:34:25.633Z,0
2018-12-06T05:34:57.618Z,0
2018-12-06T05:35:29.702Z,0
2018-12-06T05:36:01.673Z,0
2018-12-06T05:36:33.681Z,0
2018-12-06T05:37:05.719Z,0
2018-12-06T05:37:37.706Z,0
2018-12-06T05:38:09.684Z,0
2018-12-06T05:38:43.025Z,0
2018-12-06T05:39:15.007Z,0
2018-12-06T05:39:46.970Z,0
2018-12-06T05:40:18.929Z,0
2018-12-06T05:40:50.914Z,0
2018-12-06T05:41:22.884Z,0
2018-12-06T05:41:54.860Z,0
2018-12-06T05:42:26.840Z,0
2018-12-06T05:42:58.815Z,0
2018-12-06T05:43:30.874Z,0
2018-12-06T05:44:02.842Z,0
2018-12-06T05:44:34.811Z,0
2018-12-06T05:45:06.781Z,0
2018-12-06T05:45:38.762Z,0
2018-12-06T05:46:10.759Z,0
2018-12-06T05:46:42.739Z,0
2018-12-06T05:47:14.731Z,0
2018-12-06T05:47:46.702Z,0
2018-12-06T05:48:18.693Z,0
2018-12-06T05:48:50.659Z,0
2018-12-06T05:49:22.615Z,0
2018-12-06T05:49:54.670Z,0
2018-12-06T05:50:26.650Z,0
2018-12-06T05:50:58.706Z,0
2018-12-06T05:51:30.689Z,0
2018-12-06T05:52:02.668Z,0
2018-12-06T05:52:34.655Z,0
2018-12-06T05:53:06.626Z,0
2018-12-06T05:53:38.602Z,0
2018-12-06T05:54:10.575Z,0
2018-12-06T05:54:42.553Z,0
2018-12-06T05:55:14.534Z,0
2018-12-06T05:55:46.515Z,0
2018-12-06T05:56:18.502Z,0
2018-12-06T05:56:50.457Z,0
2018-12-06T05:57:22.437Z,0
2018-12-06T05:57:54.449Z,0
2018-12-06T05:58:26.428Z,0
2018-12-06T05:58:58.413Z,0
2018-12-06T05:59:30.385Z,0
2018-12-06T06:00:02.370Z,0
2018-12-06T06:00:34.361Z,0
2018-12-06T06:01:06.358Z,0
2018-12-06T06:01:38.353Z,0
2018-12-06T06:02:10.324Z,0
2018-12-06T06:02:42.320Z,0
2018-12-06T06:03:14.300Z,0
2018-12-06T06:03:46.283Z,0
2018-12-06T06:04:18.279Z,0
2018-12-06T06:04:50.266Z,0
2018-12-06T06:05:22.249Z,0
2018-12-06T06:05:54.243Z,0
2018-12-06T06:06:26.216Z,0
2018-12-06T06:06:58.196Z,0
2018-12-06T06:07:30.282Z,0
2018-12-06T06:08:02.268Z,0
2018-12-06T06:08:34.258Z,0
2018-12-06T06:09:06.258Z,0
2018-12-06T06:09:38.246Z,0
2018-12-06T06:10:10.234Z,0
2018-12-06T06:10:42.215Z,0
2018-12-06T06:11:14.195Z,0
2018-12-06T06:11:46.169Z,0
2018-12-06T06:12:18.153Z,0
2018-12-06T06:12:50.129Z,0
2018-12-06T06:13:22.132Z,0
2018-12-06T06:13:54.116Z,0
2018-12-06T06:14:26.075Z,0
2018-12-06T06:14:58.049Z,0
2018-12-06T06:15:30.031Z,0
2018-12-06T06:16:02.004Z,0
2018-12-06T06:16:33.982Z,0
2018-12-06T06:17:05.973Z,0
2018-12-06T06:17:37.931Z,0
2018-12-06T06:18:09.932Z,0
2018-12-06T06:18:41.915Z,0
2018-12-06T06:19:13.897Z,0
2018-12-06T06:19:45.886Z,0
2018-12-06T06:20:17.851Z,0
2018-12-06T06:20:49.823Z,0
2018-12-06T06:21:21.823Z,0
2018-12-06T06:21:53.803Z,0
2018-12-06T06:22:25.796Z,0
2018-12-06T06:22:57.767Z,0
2018-12-06T06:23:29.768Z,0
2018-12-06T06:24:01.742Z,0
2018-12-06T06:24:33.805Z,0
2018-12-06T06:25:05.857Z,0
2018-12-06T06:25:37.924Z,0
2018-12-06T06:26:09.988Z,0
2018-12-06T06:26:42.005Z,0
2018-12-06T06:27:14.056Z,0
2018-12-06T06:27:46.127Z,0
2018-12-06T06:28:18.117Z,0
2018-12-06T06:28:50.455Z,0
2018-12-06T06:29:22.527Z,0
2018-12-06T06:29:54.538Z,0
2018-12-06T06:30:26.532Z,0
2018-12-06T06:30:59.622Z,0
2018-12-06T06:31:31.750Z,0
2018-12-06T06:32:03.742Z,0
2018-12-06T06:32:35.719Z,0
2018-12-06T06:33:09.619Z,0
2018-12-06T06:33:41.605Z,0
2018-12-06T06:34:13.596Z,0
2018-12-06T06:34:45.569Z,0
2018-12-06T06:35:17.547Z,0
2018-12-06T06:35:49.538Z,0
2018-12-06T06:36:21.519Z,0
2018-12-06T06:36:53.495Z,0
2018-12-06T06:37:25.485Z,0
2018-12-06T06:37:57.519Z,0
2018-12-06T06:38:29.526Z,0
2018-12-06T06:39:01.529Z,0
2018-12-06T06:39:33.526Z,0
2018-12-06T06:40:05.509Z,0
2018-12-06T06:40:37.527Z,0
2018-12-06T06:41:09.494Z,0
2018-12-06T06:41:41.500Z,0
2018-12-06T06:42:13.470Z,0
2018-12-06T06:42:45.458Z,0
2018-12-06T06:43:17.458Z,0
2018-12-06T06:43:49.450Z,0
2018-12-06T06:44:21.466Z,0
2018-12-06T06:44:53.458Z,0
2018-12-06T06:45:25.482Z,0
2018-12-06T06:45:57.462Z,0
2018-12-06T06:46:29.454Z,0
2018-12-06T06:47:01.473Z,0
2018-12-06T06:47:33.493Z,0
2018-12-06T06:48:05.475Z,0
2018-12-06T06:48:37.457Z,0
2018-12-06T06:49:15.174Z,0
2018-12-06T06:49:47.159Z,0
2018-12-06T06:50:19.130Z,0
2018-12-06T06:50:51.127Z,0
2018-12-06T06:51:23.161Z,0
2018-12-06T06:51:55.217Z,0
2018-12-06T06:52:27.211Z,0
2018-12-06T06:52:59.194Z,0
2018-12-06T06:53:31.207Z,0
2018-12-06T06:54:03.304Z,0
2018-12-06T06:54:35.312Z,0
2018-12-06T06:55:07.309Z,0
2018-12-06T06:55:39.310Z,0
2018-12-06T06:56:11.365Z,0
2018-12-06T06:56:43.339Z,0
2018-12-06T06:57:15.343Z,0
2018-12-06T06:57:47.315Z,0
2018-12-06T06:58:19.299Z,0
2018-12-06T06:58:51.822Z,0
2018-12-06T06:59:27.406Z,0
2018-12-06T06:59:59.384Z,0
2018-12-06T07:00:31.410Z,0
2018-12-06T07:01:03.421Z,0
2018-12-06T07:01:35.402Z,0
2018-12-06T07:02:07.384Z,0
2018-12-06T07:02:39.379Z,0
2018-12-06T07:03:11.373Z,4
2018-12-06T07:03:43.351Z,4
2018-12-06T07:04:15.345Z,4
2018-12-06T07:04:47.331Z,4
2018-12-06T07:05:19.316Z,4
2018-12-06T07:05:51.282Z,4
2018-12-06T07:06:23.263Z,4
2018-12-06T07:06:55.309Z,0
2018-12-06T07:07:27.294Z,0
2018-12-06T07:07:59.272Z,0
2018-12-06T07:08:31.247Z,0
2018-12-06T07:09:03.232Z,0
2018-12-06T07:09:35.187Z,0
2018-12-06T07:10:07.165Z,4
2018-12-06T07:10:39.138Z,4
2018-12-06T07:11:11.116Z,4
2018-12-06T07:11:43.102Z,4
2018-12-06T07:12:15.122Z,4
2018-12-06T07:12:47.107Z,4
2018-12-06T07:13:19.090Z,4
2018-12-06T07:13:51.076Z,4
2018-12-06T07:14:23.144Z,8
2018-12-06T07:14:55.125Z,8
2018-12-06T07:15:27.115Z,8
2018-12-06T07:15:59.097Z,8
2018-12-06T07:16:31.081Z,12
2018-12-06T07:17:04.918Z,8
2018-12-06T07:17:36.894Z,8
2018-12-06T07:18:08.881Z,8
2018-12-06T07:18:40.966Z,8
2018-12-06T07:19:12.957Z,12
2018-12-06T07:19:44.938Z,8
2018-12-06T07:20:16.932Z,8
2018-12-06T07:20:48.917Z,8
2018-12-06T07:21:20.904Z,12
2018-12-06T07:21:52.887Z,12
2018-12-06T07:22:24.854Z,16
2018-12-06T07:22:56.832Z,12
2018-12-06T07:23:28.807Z,16
2018-12-06T07:24:00.799Z,16
2018-12-06T07:24:32.769Z,16
2018-12-06T07:25:04.741Z,16
2018-12-06T07:25:36.709Z,16
2018-12-06T07:26:08.698Z,16
2018-12-06T07:26:41.000Z,20
2018-12-06T07:27:13.049Z,20
2018-12-06T07:27:45.039Z,24
2018-12-06T07:28:17.003Z,32
2018-12-06T07:28:49.000Z,36
2018-12-06T07:29:20.993Z,48
2018-12-06T07:29:53.024Z,56
2018-12-06T07:30:25.017Z,60
2018-12-06T07:30:56.992Z,64
2018-12-06T07:31:28.974Z,68
2018-12-06T07:32:00.946Z,68
2018-12-06T07:32:32.929Z,72
2018-12-06T07:33:04.909Z,76
2018-12-06T07:33:36.941Z,80
2018-12-06T07:34:08.921Z,84
2018-12-06T07:34:40.903Z,84
2018-12-06T07:35:12.922Z,88
2018-12-06T07:35:44.901Z,92
2018-12-06T07:36:16.876Z,92
2018-12-06T07:36:48.889Z,92
2018-12-06T07:37:20.860Z,92
2018-12-06T07:37:52.848Z,92
2018-12-06T07:38:24.841Z,92
2018-12-06T07:38:56.809Z,92
2018-12-06T07:39:28.797Z,96
2018-12-06T07:40:00.781Z,96
2018-12-06T07:40:32.782Z,96
2018-12-06T07:41:04.759Z,96
2018-12-06T07:41:36.727Z,96
2018-12-06T07:42:08.716Z,92
2018-12-06T07:42:40.712Z,96
2018-12-06T07:43:12.696Z,96
2018-12-06T07:43:44.697Z,92
2018-12-06T07:44:16.683Z,88
2018-12-06T07:44:48.668Z,84
2018-12-06T07:45:20.717Z,80
2018-12-06T07:45:52.689Z,76
2018-12-06T07:46:24.674Z,76
2018-12-06T07:46:56.663Z,72
2018-12-06T07:47:28.683Z,76
2018-12-06T07:48:00.723Z,84
2018-12-06T07:48:32.704Z,88
2018-12-06T07:49:04.665Z,84
2018-12-06T07:49:36.641Z,80
2018-12-06T07:50:08.632Z,76
2018-12-06T07:50:40.622Z,68
2018-12-06T07:51:12.752Z,60
2018-12-06T07:51:44.743Z,56
2018-12-06T07:52:16.770Z,52